Time;durP1;ratioP1;P1;durP2;ratioP2;P2;SDS_P1;SDS_P2;PMS_P1;PMS_P2;Temp;Humidity;BMP_temperature;BMP_pressure;BME280_temperature;BME280_humidity;BME280_pressure;Samples;Min_cycle;Max_cycle;Signal;HPM_P1;HPM_P2
2021/12/06 00:00:59;;;;;;;78.80;21.67;;;;;;;-2.02;100.00;97959.37;4407861;32;20072;-70
2021/12/06 00:03:36;;;;;;;73.95;22.02;;;;;;;-1.96;100.00;97979.69;4412926;32;20051;-69
2021/12/06 00:06:02;;;;;;;62.72;20.15;;;;;;;-1.99;100.00;97964.25;4416740;32;20080;-69
2021/12/06 00:08:30;;;;;;;89.20;17.48;;;;;;;-2.11;100.00;97944.69;4403131;32;20111;-69
2021/12/06 00:10:57;;;;;;;85.18;19.20;;;;;;;-2.09;100.00;97950.59;4405185;32;20022;-70
2021/12/06 00:13:24;;;;;;;86.45;19.42;;;;;;;-2.07;100.00;97952.03;4410027;32;20123;-70
2021/12/06 00:15:51;;;;;;;74.68;18.23;;;;;;;-2.07;100.00;97956.50;4401988;32;20068;-69
2021/12/06 00:18:19;;;;;;;108.85;25.30;;;;;;;-2.08;100.00;97949.59;4403870;32;20043;-69
2021/12/06 00:20:46;;;;;;;70.18;20.80;;;;;;;-2.09;100.00;97950.59;4402764;32;20060;-69
2021/12/06 00:23:13;;;;;;;70.35;20.23;;;;;;;-2.05;100.00;97967.66;4404933;32;20051;-69
2021/12/06 00:25:39;;;;;;;88.47;20.52;;;;;;;-2.04;100.00;97972.75;4401753;32;20047;-70
2021/12/06 00:28:06;;;;;;;77.30;18.87;;;;;;;-2.08;100.00;97975.97;4403851;32;20077;-69
2021/12/06 00:30:33;;;;;;;85.03;20.73;;;;;;;-2.27;100.00;97951.09;4403968;32;20050;-69
2021/12/06 00:33:00;;;;;;;65.65;18.33;;;;;;;-2.00;100.00;97981.09;4402246;32;20039;-69
2021/12/06 00:35:29;;;;;;;62.05;17.70;;;;;;;-2.13;100.00;97958.09;4409735;32;20165;-69
2021/12/06 00:37:58;;;;;;;60.30;18.20;;;;;;;-2.14;100.00;97972.28;4411299;32;20038;-69
2021/12/06 00:40:35;;;;;;;54.13;18.23;;;;;;;-2.28;100.00;97939.75;4416928;32;20038;-70
2021/12/06 00:43:04;;;;;;;53.00;11.07;;;;;;;-2.47;100.00;97914.88;4418136;32;20372;-69
2021/12/06 00:45:31;;;;;;;78.47;17.65;;;;;;;-2.31;100.00;97949.84;4417588;32;20387;-69
2021/12/06 00:47:58;;;;;;;40.85;13.62;;;;;;;-2.15;100.00;97969.81;4417549;32;20087;-70
2021/12/06 00:50:28;;;;;;;49.65;13.27;;;;;;;-2.08;100.00;97983.88;4413799;32;20046;-69
2021/12/06 00:52:55;;;;;;;59.80;17.33;;;;;;;-2.20;100.00;97963.31;4418080;32;20035;-69
2021/12/06 00:55:28;;;;;;;58.40;18.08;;;;;;;-2.01;100.00;97987.34;4418402;32;20107;-69
2021/12/06 00:57:56;;;;;;;65.03;19.73;;;;;;;-2.32;100.00;97942.97;4416249;32;20050;-69
2021/12/06 01:00:27;;;;;;;60.45;18.80;;;;;;;-1.97;100.00;97995.72;4417587;32;20042;-69
2021/12/06 01:02:55;;;;;;;;;;;;;;;-1.96;100.00;98005.25;4403485;32;20376;-69
2021/12/06 01:05:24;;;;;;;55.17;18.80;;;;;;;-1.88;100.00;98008.56;4402483;32;19933;-69
2021/12/06 01:07:54;;;;;;;68.57;18.65;;;;;;;-1.88;100.00;98013.84;4401663;32;20043;-69
2021/12/06 01:10:26;;;;;;;87.22;20.12;;;;;;;-1.88;100.00;98011.19;4402948;32;20043;-70
2021/12/06 01:12:53;;;;;;;56.37;19.50;;;;;;;-2.12;100.00;97964.16;4411010;32;20047;-69
2021/12/06 01:15:20;;;;;;;71.32;18.42;;;;;;;-1.96;100.00;98011.34;4415751;32;20078;-69
2021/12/06 01:17:47;;;;;;;103.07;18.75;;;;;;;-2.14;100.00;97989.94;4402758;32;20035;-69
2021/12/06 01:20:20;;;;;;;65.00;18.87;;;;;;;-1.95;100.00;98006.88;4418270;32;20061;-69
2021/12/06 01:22:53;;;;;;;;;;;;;;;-1.92;100.00;98017.84;4417955;32;20050;-70
2021/12/06 01:31:05;;;;;;;109.40;20.20;;;;;;;-1.93;100.00;98000.41;4406324;32;20038;-70
2021/12/06 01:41:35;;;;;;;65.05;20.48;;;;;;;-1.90;100.00;98021.13;4417771;32;20042;-69
2021/12/06 01:44:14;;;;;;;82.25;18.60;;;;;;;-1.99;100.00;98010.91;4417798;32;20034;-70
2021/12/06 01:46:48;;;;;;;40.67;14.57;;;;;;;-1.90;100.00;98020.31;4418019;32;20046;-69
2021/12/06 01:49:16;;;;;;;61.35;16.83;;;;;;;-1.92;100.00;98023.12;4417370;32;20076;-69
2021/12/06 01:51:46;;;;;;;80.05;15.48;;;;;;;-2.20;100.00;97981.78;4417548;32;20051;-69
2021/12/06 01:54:15;;;;;;;52.03;15.13;;;;;;;-2.03;100.00;98021.88;4415669;32;20060;-69
2021/12/06 01:56:42;;;;;;;95.10;17.65;;;;;;;-2.13;100.00;98004.75;4417070;32;20058;-69
2021/12/06 01:59:11;;;;;;;60.10;17.20;;;;;;;-2.06;100.00;98016.16;4417171;32;20043;-69
2021/12/06 02:01:40;;;;;;;90.18;20.35;;;;;;;-1.99;100.00;98029.38;4417354;32;20085;-69
2021/12/06 02:04:08;;;;;;;151.68;17.42;;;;;;;-1.96;100.00;98029.81;4410751;32;20076;-69
2021/12/06 02:06:37;;;;;;;80.07;18.77;;;;;;;-2.02;100.00;98025.31;4417652;32;20072;-69
2021/12/06 02:09:06;;;;;;;91.28;20.23;;;;;;;-1.92;100.00;98028.41;4417383;32;20039;-71
2021/12/06 02:11:36;;;;;;;63.42;19.42;;;;;;;-2.18;100.00;97980.78;4417334;32;20075;-70
2021/12/06 02:14:24;;;;;;;58.67;16.95;;;;;;;-1.93;100.00;98021.53;4416481;32;20443;-69
2021/12/06 02:17:04;;;;;;;60.45;16.30;;;;;;;-1.92;100.00;98017.84;4417155;32;20087;-70
2021/12/06 02:19:36;;;;;;;91.72;14.07;;;;;;;-2.20;100.00;97967.78;4416664;32;20069;-70
2021/12/06 02:22:04;;;;;;;114.68;21.58;;;;;;;-2.06;100.00;98010.88;4415669;32;20064;-70
2021/12/06 02:24:32;;;;;;;54.90;17.25;;;;;;;-2.11;100.00;98000.09;4417092;32;20068;-70
2021/12/06 02:27:00;;;;;;;63.13;20.08;;;;;;;-2.05;100.00;98018.59;4410058;32;20090;-69
2021/12/06 02:29:28;;;;;;;57.53;9.52;;;;;;;-2.26;100.00;97966.72;4414941;32;20026;-70
2021/12/06 02:31:55;;;;;;;72.60;16.08;;;;;;;-2.08;100.00;98008.44;4415303;32;20035;-69
2021/12/06 02:34:23;;;;;;;117.62;17.35;;;;;;;-2.15;100.00;98001.47;4417091;32;20044;-70
2021/12/06 02:36:50;;;;;;;73.05;18.08;;;;;;;-2.43;100.00;97952.22;4417107;32;20393;-70
2021/12/06 02:39:23;;;;;;;89.18;16.92;;;;;;;-2.11;100.00;98000.09;4416797;32;20038;-70
2021/12/06 02:41:52;;;;;;;43.50;11.68;;;;;;;-2.13;100.00;98004.75;4415042;32;20191;-70
2021/12/06 02:44:19;;;;;;;42.25;13.65;;;;;;;-2.15;100.00;97993.56;4416739;32;20091;-70
2021/12/06 02:46:46;;;;;;;76.45;16.62;;;;;;;-2.11;100.00;98008.00;4417287;32;20073;-70
2021/12/06 02:49:13;;;;;;;58.60;12.40;;;;;;;-2.06;100.00;98005.59;4416919;32;20039;-69
2021/12/06 02:51:41;;;;;;;51.33;10.70;;;;;;;-2.10;100.00;98014.91;4401821;32;20110;-70
2021/12/06 02:54:09;;;;;;;71.18;14.85;;;;;;;-2.18;100.00;98018.53;4415599;32;20062;-69
2021/12/06 02:56:53;;;;;;;115.68;23.23;;;;;;;-2.08;100.00;98034.00;4401868;32;20047;-70
2021/12/06 02:59:25;;;;;;;52.30;14.98;;;;;;;-2.27;100.00;97994.09;4413153;32;20199;-70
2021/12/06 03:01:55;;;;;;;84.25;15.65;;;;;;;-2.01;100.00;98027.75;4403502;32;20038;-69
2021/12/06 03:04:23;;;;;;;62.08;15.07;;;;;;;-2.04;100.00;98019.44;4416459;32;20042;-70
2021/12/06 03:06:54;;;;;;;52.83;13.75;;;;;;;-2.07;100.00;98025.09;4416123;32;20368;-70
2021/12/06 03:09:24;;;;;;;79.15;18.23;;;;;;;-2.09;100.00;98037.63;4400197;32;20038;-69
2021/12/06 03:12:01;;;;;;;100.85;17.35;;;;;;;-2.06;100.00;98031.97;4398551;32;20082;-69
2021/12/06 03:14:33;;;;;;;61.25;14.75;;;;;;;-2.04;100.00;98027.34;4401408;32;20047;-69
2021/12/06 03:17:04;;;;;;;67.97;17.23;;;;;;;-2.03;100.00;98026.31;4400100;32;20065;-69
2021/12/06 03:19:30;;;;;;;75.12;16.55;;;;;;;-2.00;100.00;98020.66;4415270;32;20084;-69
2021/12/06 03:21:57;;;;;;;59.42;15.50;;;;;;;-1.97;100.00;98025.53;4416754;32;20474;-69
2021/12/06 03:24:24;;;;;;;124.25;19.80;;;;;;;-2.03;100.00;98027.16;4415839;32;20394;-69
2021/12/06 03:26:51;;;;;;;62.88;14.73;;;;;;;-2.53;100.00;97946.47;4415831;32;20395;-69
2021/12/06 03:29:18;;;;;;;75.62;18.90;;;;;;;-2.17;100.00;98003.50;4413707;32;20157;-69
2021/12/06 03:31:47;;;;;;;101.57;16.37;;;;;;;-2.25;100.00;97997.37;4416654;32;20128;-70
2021/12/06 03:34:15;;;;;;;75.85;14.98;;;;;;;-2.05;100.00;98023.06;4416501;32;20034;-69
2021/12/06 03:36:44;;;;;;;64.75;17.58;;;;;;;-2.09;100.00;98033.19;4414339;32;20030;-69
2021/12/06 03:39:20;;;;;;;75.45;20.85;;;;;;;-2.06;100.00;98031.97;4413939;32;20038;-69
2021/12/06 03:41:48;;;;;;;50.55;14.52;;;;;;;-2.00;100.00;98041.75;4415697;32;20154;-69
2021/12/06 03:44:15;;;;;;;60.72;15.93;;;;;;;-2.27;100.00;98009.91;4409860;32;20230;-69
2021/12/06 03:46:42;;;;;;;65.95;20.27;;;;;;;-2.01;100.00;98056.78;4416258;32;20056;-69
2021/12/06 03:49:12;;;;;;;62.78;17.23;;;;;;;-1.94;100.00;98064.75;4413616;32;20529;-69
2021/12/06 03:51:39;;;;;;;77.20;16.62;;;;;;;-2.12;100.00;98038.84;4416329;32;20173;-69
2021/12/06 03:54:06;;;;;;;45.15;15.13;;;;;;;-1.94;100.00;98077.12;4416278;32;20030;-69
2021/12/06 03:56:41;;;;;;;41.90;12.73;;;;;;;-2.24;100.00;98021.91;4416182;32;20039;-69
2021/12/06 03:59:08;;;;;;;39.67;13.45;;;;;;;-2.30;100.00;98031.41;4412977;32;20042;-70
2021/12/06 04:01:35;;;;;;;36.38;13.52;;;;;;;-1.99;100.00;98075.06;4416302;32;20971;-69
2021/12/06 04:04:05;;;;;;;35.53;12.00;;;;;;;-2.13;100.00;98060.16;4415598;32;20031;-69
2021/12/06 04:06:33;;;;;;;42.47;13.48;;;;;;;-2.04;100.00;98072.19;4409306;32;20035;-69
2021/12/06 04:09:02;;;;;;;31.65;10.20;;;;;;;-2.02;100.00;98081.53;4408633;32;20039;-69
2021/12/06 04:11:37;;;;;;;30.23;12.00;;;;;;;-1.98;100.00;98092.50;4415934;32;20093;-70
2021/12/06 04:14:06;;;;;;;27.02;10.73;;;;;;;-1.94;100.00;98096.41;4415903;32;20030;-70
2021/12/06 04:16:35;;;;;;;31.50;10.13;;;;;;;-2.06;100.00;98079.47;4415364;32;20387;-69
2021/12/06 04:19:04;;;;;;;30.77;10.25;;;;;;;-2.26;100.00;98043.22;4415060;32;20034;-70
2021/12/06 04:21:32;;;;;;;23.62;11.30;;;;;;;-1.91;100.00;98106.56;4415840;32;20048;-69
2021/12/06 04:23:59;;;;;;;32.00;11.07;;;;;;;-2.15;100.00;98062.12;4415475;32;20050;-70
2021/12/06 04:26:26;;;;;;;36.42;11.00;;;;;;;-1.89;100.00;98107.19;4414541;32;20039;-69
2021/12/06 04:29:01;;;;;;;29.05;10.50;;;;;;;-2.14;100.00;98066.41;4414133;32;20042;-70
2021/12/06 04:31:35;;;;;;;19.48;8.63;;;;;;;-1.88;100.00;98116.75;4415667;32;20100;-69
2021/12/06 04:34:02;;;;;;;23.35;9.50;;;;;;;-1.84;100.00;98115.34;4413716;32;20042;-70
2021/12/06 04:36:29;;;;;;;28.05;9.98;;;;;;;-1.88;100.00;98114.09;4413637;32;20074;-70
2021/12/06 04:38:56;;;;;;;23.02;9.07;;;;;;;-2.13;100.00;98063.59;4416676;32;20050;-69
2021/12/06 04:41:22;;;;;;;26.40;10.18;;;;;;;-1.97;100.00;98088.87;4417917;32;20030;-69
2021/12/06 04:43:50;;;;;;;20.88;9.27;;;;;;;-1.89;100.00;98096.63;4418634;32;20064;-69
2021/12/06 04:46:17;;;;;;;23.50;9.85;;;;;;;-1.75;100.00;98117.84;4417226;32;20456;-69
2021/12/06 04:48:44;;;;;;;21.23;9.10;;;;;;;-1.74;100.00;98117.66;4404766;32;20050;-69
2021/12/06 04:51:11;;;;;;;27.77;10.80;;;;;;;-1.86;100.00;98112.09;4416102;32;20060;-70
2021/12/06 04:53:40;;;;;;;25.67;9.77;;;;;;;-2.22;100.00;98044.47;4418493;32;20027;-70
2021/12/06 04:56:17;;;;;;;22.62;9.85;;;;;;;-1.72;100.00;98120.13;4404167;32;20121;-70
2021/12/06 04:58:58;;;;;;;19.73;8.15;;;;;;;-1.96;100.00;98084.41;4417084;32;20177;-70
2021/12/06 05:01:28;;;;;;;20.02;8.95;;;;;;;-1.78;100.00;98118.25;4418142;32;20337;-69
2021/12/06 05:04:00;;;;;;;18.30;8.33;;;;;;;-1.75;100.00;98117.84;4416627;32;20068;-70
2021/12/06 05:06:31;;;;;;;15.05;6.50;;;;;;;-1.79;100.00;98111.31;4417789;32;20038;-70
2021/12/06 05:09:08;;;;;;;14.43;6.60;;;;;;;-2.09;100.00;98069.28;4393717;32;20614;-70
2021/12/06 05:11:35;;;;;;;5.18;3.17;;;;;;;-2.10;100.00;98054.50;4418243;32;20046;-70
2021/12/06 05:14:03;;;;;;;14.70;7.30;;;;;;;-1.85;100.00;98097.88;4415562;32;20046;-70
2021/12/06 05:16:33;;;;;;;14.07;6.15;;;;;;;-1.93;100.00;98079.56;4404749;32;20042;-69
2021/12/06 05:19:01;;;;;;;12.77;6.72;;;;;;;-1.87;100.00;98099.06;4404643;32;20110;-70
2021/12/06 05:21:28;;;;;;;16.80;7.70;;;;;;;-1.97;100.00;98091.50;4418595;32;20340;-69
2021/12/06 05:23:55;;;;;;;16.73;6.62;;;;;;;-1.91;100.00;98098.66;4416744;32;20055;-70
2021/12/06 05:26:21;;;;;;;7.12;3.83;;;;;;;-1.90;100.00;98099.47;4416786;32;20064;-70
2021/12/06 05:28:50;;;;;;;12.68;7.12;;;;;;;-1.95;100.00;98101.88;4416596;32;20082;-70
2021/12/06 05:31:19;;;;;;;10.90;6.05;;;;;;;-2.27;100.00;98048.66;4403857;32;20030;-71
2021/12/06 05:33:52;;;;;;;14.13;5.32;;;;;;;-1.90;100.00;98118.78;4417784;32;20356;-70
2021/12/06 05:36:19;;;;;;;18.20;7.62;;;;;;;-1.93;100.00;98121.78;4415174;32;20042;-70
2021/12/06 05:38:45;;;;;;;29.70;7.75;;;;;;;-1.94;100.00;98114.88;4417950;32;20131;-69
2021/12/06 05:41:12;;;;;;;12.88;6.32;;;;;;;-1.88;100.00;98119.37;4417422;32;20064;-70
2021/12/06 05:43:39;;;;;;;11.73;4.35;;;;;;;-1.94;100.00;98120.16;4401254;32;20035;-70
2021/12/06 05:46:05;;;;;;;10.75;4.93;;;;;;;-2.30;100.00;98068.31;4408608;32;20042;-71
2021/12/06 05:48:32;;;;;;;12.48;4.95;;;;;;;-1.92;100.00;98126.03;4415890;32;20068;-70
2021/12/06 05:50:59;;;;;;;11.60;4.22;;;;;;;-1.91;100.00;98119.75;4416487;32;20450;-69
2021/12/06 05:53:26;;;;;;;12.02;5.87;;;;;;;-1.94;100.00;98130.69;4417514;32;20060;-69
2021/12/06 05:55:53;;;;;;;19.55;6.87;;;;;;;-2.09;100.00;98111.50;4401514;32;20043;-70
2021/12/06 05:58:22;;;;;;;25.95;8.13;;;;;;;-2.06;100.00;98116.38;4414095;32;20100;-70
2021/12/06 06:00:50;;;;;;;13.43;6.03;;;;;;;-1.85;100.00;98153.31;4414758;32;20038;-69
2021/12/06 06:03:17;;;;;;;17.45;6.60;;;;;;;-1.92;100.00;98155.06;4417532;32;20042;-70
2021/12/06 06:05:43;;;;;;;12.45;5.28;;;;;;;-1.92;100.00;98155.06;4416670;32;20121;-69
2021/12/06 06:08:11;;;;;;;17.92;7.12;;;;;;;-1.80;100.00;98167.72;4417234;32;20086;-70
2021/12/06 06:10:38;;;;;;;14.60;6.75;;;;;;;-1.80;100.00;98178.28;4414034;32;20456;-69
2021/12/06 06:13:06;;;;;;;23.80;8.02;;;;;;;-1.86;100.00;98179.87;4411724;32;20083;-69
2021/12/06 06:15:33;;;;;;;12.35;6.12;;;;;;;-1.85;100.00;98182.34;4416462;32;20042;-69
2021/12/06 06:18:01;;;;;;;16.42;7.03;;;;;;;-2.14;100.00;98151.63;4403857;32;20499;-69
2021/12/06 06:20:38;;;;;;;12.20;6.70;;;;;;;-2.20;100.00;98137.38;4416415;32;20042;-70
2021/12/06 06:23:07;;;;;;;8.48;4.03;;;;;;;-1.85;100.00;98200.81;4417138;32;20038;-70
2021/12/06 06:25:33;;;;;;;17.95;7.55;;;;;;;-1.92;100.00;98197.28;4415719;32;20364;-69
2021/12/06 06:28:01;;;;;;;12.13;5.00;;;;;;;-1.85;100.00;98206.09;4414830;32;20107;-68
2021/12/06 06:30:28;;;;;;;29.00;8.23;;;;;;;-1.93;100.00;98200.94;4404819;32;20049;-71
2021/12/06 06:32:56;;;;;;;26.40;7.15;;;;;;;-1.88;100.00;98217.03;4416019;32;20042;-70
2021/12/06 06:35:24;;;;;;;21.70;8.45;;;;;;;-1.98;100.00;98208.59;4411587;32;20050;-70
2021/12/06 06:37:52;;;;;;;19.37;6.97;;;;;;;-1.89;100.00;98223.28;4404558;32;20090;-69
2021/12/06 06:40:19;;;;;;;20.08;8.93;;;;;;;-2.06;100.00;98203.44;4414355;32;20071;-69
2021/12/06 06:42:46;;;;;;;19.52;7.85;;;;;;;-1.88;100.00;98238.13;4391677;32;20435;-69
2021/12/06 06:45:16;;;;;;;27.23;9.85;;;;;;;-1.84;100.00;98231.44;4415248;32;20828;-68
2021/12/06 06:47:42;;;;;;;23.67;8.88;;;;;;;-2.06;100.00;98195.53;4415183;32;20058;-69
2021/12/06 06:50:10;;;;;;;18.62;8.18;;;;;;;-1.91;100.00;98224.50;4414212;32;20095;-69
2021/12/06 06:52:37;;;;;;;23.80;8.38;;;;;;;-1.83;100.00;98227.00;4415790;32;20042;-69
2021/12/06 06:55:05;;;;;;;14.10;6.12;;;;;;;-2.10;100.00;98183.75;4414142;32;20123;-68
2021/12/06 06:57:33;;;;;;;16.65;6.00;;;;;;;-1.85;100.00;98229.00;4415429;32;20104;-68
2021/12/06 07:00:00;;;;;;;17.60;5.47;;;;;;;-1.92;100.00;98217.59;4407311;32;20378;-69
2021/12/06 07:02:26;;;;;;;20.05;6.20;;;;;;;-2.24;100.00;98178.31;4408101;32;20051;-69
2021/12/06 07:04:52;;;;;;;24.92;8.77;;;;;;;-1.90;100.00;98242.78;4415490;32;20383;-70
2021/12/06 07:07:20;;;;;;;57.13;11.25;;;;;;;-2.08;100.00;98192.28;4415235;32;20465;-69
2021/12/06 07:09:46;;;;;;;17.00;5.22;;;;;;;-2.17;100.00;98182.84;4415259;32;20119;-69
2021/12/06 07:12:16;;;;;;;25.33;10.43;;;;;;;-1.95;100.00;98233.78;4412754;32;20035;-69
2021/12/06 07:14:45;;;;;;;39.08;9.27;;;;;;;-2.17;100.00;98188.97;4407633;32;20418;-69
2021/12/06 07:17:12;;;;;;;18.02;7.22;;;;;;;-1.97;100.00;98223.41;4406331;32;20046;-70
2021/12/06 07:19:38;;;;;;;23.62;10.05;;;;;;;-1.94;100.00;98215.13;4410853;32;20965;-69
2021/12/06 07:22:06;;;;;;;8.45;4.80;;;;;;;-1.97;100.00;98220.78;4416097;32;20395;-69
2021/12/06 07:24:32;;;;;;;14.85;3.95;;;;;;;-2.06;100.00;98200.81;4413606;32;20456;-68
2021/12/06 07:26:59;;;;;;;28.95;10.02;;;;;;;-1.97;100.00;98220.78;4412363;32;20380;-69
2021/12/06 07:29:29;;;;;;;22.13;9.80;;;;;;;-1.98;100.00;98219.13;4400231;32;20132;-69
2021/12/06 07:31:55;;;;;;;30.75;9.32;;;;;;;-2.24;100.00;98188.88;4406228;32;20088;-69
2021/12/06 07:34:21;;;;;;;19.65;8.45;;;;;;;-2.22;100.00;98202.72;4405980;32;20058;-68
2021/12/06 07:36:48;;;;;;;30.10;10.68;;;;;;;-1.94;100.00;98246.78;4409144;32;20375;-69
2021/12/06 07:39:22;;;;;;;22.98;8.23;;;;;;;-2.17;100.00;98203.94;4412694;32;20081;-70
2021/12/06 07:41:49;;;;;;;18.58;8.68;;;;;;;-1.93;100.00;98253.72;4409772;32;20096;-69
2021/12/06 07:44:15;;;;;;;25.88;9.10;;;;;;;-2.12;100.00;98222.66;4403787;32;20039;-69
2021/12/06 07:46:42;;;;;;;23.42;9.15;;;;;;;-1.94;100.00;98240.72;4404398;32;20396;-68
2021/12/06 07:49:08;;;;;;;6.35;3.92;;;;;;;-1.97;100.00;98244.53;4400049;32;20081;-69
2021/12/06 07:51:35;;;;;;;37.17;10.02;;;;;;;-1.97;100.00;98247.16;4402090;32;20035;-69
2021/12/06 07:54:02;;;;;;;25.95;8.93;;;;;;;-1.91;100.00;98246.41;4402494;32;20051;-69
2021/12/06 07:56:28;;;;;;;18.17;8.98;;;;;;;-2.14;100.00;98199.09;4404978;32;20047;-69
2021/12/06 07:58:55;;;;;;;23.27;7.93;;;;;;;-2.23;100.00;98201.06;4407262;32;20399;-69
2021/12/06 08:01:21;;;;;;;21.75;8.98;;;;;;;-2.20;100.00;98194.59;4400090;32;20031;-69
2021/12/06 08:03:48;;;;;;;17.87;6.80;;;;;;;-1.93;100.00;98237.88;4411836;32;20444;-69
2021/12/06 08:06:15;;;;;;;25.58;5.03;;;;;;;-1.95;100.00;98234.59;4415361;32;20050;-69
2021/12/06 08:08:43;;;;;;;31.12;4.43;;;;;;;-2.22;100.00;98197.44;4414830;32;20084;-69
2021/12/06 08:11:16;;;;;;;21.02;5.18;;;;;;;-2.20;100.00;98202.53;4414488;32;20818;-69
2021/12/06 08:13:50;;;;;;;22.77;9.10;;;;;;;-2.02;100.00;98218.72;4403821;32;20078;-69
2021/12/06 08:16:19;;;;;;;9.35;4.75;;;;;;;-1.95;100.00;98239.06;4391072;32;20073;-69
2021/12/06 08:18:47;;;;;;;8.77;4.43;;;;;;;-2.30;100.00;98189.63;4403480;32;20038;-70
2021/12/06 08:21:16;;;;;;;25.08;7.97;;;;;;;-2.02;100.00;98236.38;4397731;32;20078;-70
2021/12/06 08:23:43;;;;;;;36.13;9.57;;;;;;;-1.94;100.00;98240.72;4416742;32;20066;-70
2021/12/06 08:26:10;;;;;;;4.40;3.25;;;;;;;-1.95;100.00;98245.16;4417847;32;20078;-72
2021/12/06 08:28:37;;;;;;;17.48;4.37;;;;;;;-2.26;100.00;98200.63;4416715;32;20105;-69
2021/12/06 08:31:06;;;;;;;20.17;5.82;;;;;;;-2.04;100.00;98246.31;4414875;32;20050;-70
2021/12/06 08:33:34;;;;;;;34.47;10.05;;;;;;;-2.03;100.00;98245.28;4417274;32;20047;-70
2021/12/06 08:36:01;;;;;;;32.50;9.88;;;;;;;-2.02;100.00;98257.47;4414562;32;20078;-69
2021/12/06 08:38:31;;;;;;;29.80;9.75;;;;;;;-2.21;100.00;98235.97;4407157;32;20380;-70
2021/12/06 08:40:59;;;;;;;27.98;8.98;;;;;;;-1.99;100.00;98278.22;4407837;32;20056;-69
2021/12/06 08:43:26;;;;;;;20.30;8.25;;;;;;;-2.23;100.00;98227.44;4393506;32;20070;-70
2021/12/06 08:46:00;;;;;;;57.17;7.47;;;;;;;-1.89;100.00;98276.06;4393517;32;20068;-70
2021/12/06 08:48:30;;;;;;;20.80;6.12;;;;;;;-2.03;100.00;98280.41;4403911;32;20174;-70
2021/12/06 08:51:01;;;;;;;18.35;9.48;;;;;;;-1.97;100.00;98281.47;4401684;32;20068;-69
2021/12/06 08:53:29;;;;;;;21.33;9.65;;;;;;;-1.97;100.00;98289.38;4402398;32;20498;-70
2021/12/06 08:55:56;;;;;;;19.42;9.75;;;;;;;-1.96;100.00;98287.56;4404837;32;20043;-70
2021/12/06 08:58:23;;;;;;;21.23;9.40;;;;;;;-1.96;100.00;98282.28;4403028;32;20046;-70
2021/12/06 09:00:51;;;;;;;20.17;7.40;;;;;;;-2.04;100.00;98283.25;4403220;32;20038;-70
2021/12/06 09:03:18;;;;;;;8.00;3.75;;;;;;;-1.97;100.00;98294.66;4411113;32;20058;-67
2021/12/06 09:05:50;;;;;;;14.70;5.35;;;;;;;-2.02;100.00;98297.06;4401590;32;20195;-70
2021/12/06 09:08:17;;;;;;;14.50;6.28;;;;;;;-2.33;100.00;98245.41;4403596;32;20126;-70
2021/12/06 09:10:50;;;;;;;18.70;7.18;;;;;;;-1.98;100.00;98308.03;4403457;32;20068;-70
2021/12/06 09:13:19;;;;;;;22.45;7.05;;;;;;;-1.99;100.00;98291.41;4414792;32;20071;-68
2021/12/06 09:15:46;;;;;;;21.48;9.73;;;;;;;-2.27;100.00;98244.62;4412556;32;20076;-69
2021/12/06 09:18:13;;;;;;;20.90;7.55;;;;;;;-2.21;100.00;98257.06;4413819;32;20070;-68
2021/12/06 09:20:42;;;;;;;17.50;7.40;;;;;;;-1.95;100.00;98305.84;4412692;32;20113;-69
2021/12/06 09:23:12;;;;;;;48.15;8.25;;;;;;;-1.92;100.00;98305.47;4406627;32;20380;-67
2021/12/06 09:25:40;;;;;;;23.12;7.10;;;;;;;-2.29;100.00;98267.72;4401295;32;20421;-69
2021/12/06 09:28:07;;;;;;;32.97;8.30;;;;;;;-1.99;100.00;98307.22;4403205;32;20631;-68
2021/12/06 09:30:35;;;;;;;26.85;10.32;;;;;;;-2.09;100.00;98302.25;4411266;32;20068;-70
2021/12/06 09:33:05;;;;;;;67.35;10.40;;;;;;;-1.98;100.00;98303.56;4409315;32;20038;-69
2021/12/06 09:35:36;;;;;;;22.33;9.52;;;;;;;-1.87;100.00;98316.31;4410710;32;20624;-68
2021/12/06 09:38:04;;;;;;;27.55;8.43;;;;;;;-2.07;100.00;98288.88;4410798;32;20042;-68
2021/12/06 09:40:32;;;;;;;31.17;11.90;;;;;;;-1.95;100.00;98312.94;4408048;32;20076;-69
2021/12/06 09:43:00;;;;;;;21.00;7.93;;;;;;;-1.93;100.00;98318.84;4411564;32;20054;-68
2021/12/06 09:45:30;;;;;;;25.45;9.55;;;;;;;-1.92;100.00;98317.84;4401721;32;20102;-69
2021/12/06 09:47:59;;;;;;;20.62;9.65;;;;;;;-1.93;100.00;98322.31;4406832;32;20050;-68
2021/12/06 09:50:30;;;;;;;21.00;8.90;;;;;;;-2.01;100.00;98312.69;4408539;32;20428;-69
2021/12/06 09:52:59;;;;;;;33.78;9.63;;;;;;;-2.17;100.00;98277.81;4405903;32;20068;-69
2021/12/06 09:55:29;;;;;;;22.98;9.15;;;;;;;-1.97;100.00;98315.78;4409665;32;20043;-69
2021/12/06 09:57:56;;;;;;;16.12;6.32;;;;;;;-1.94;100.00;98310.13;4407798;32;20115;-69
2021/12/06 10:00:26;;;;;;;23.23;8.57;;;;;;;-2.29;100.00;98262.47;4401787;32;20039;-70
2021/12/06 10:02:54;;;;;;;37.95;9.55;;;;;;;-1.99;100.00;98312.50;4400168;32;20054;-70
2021/12/06 10:05:26;;;;;;;23.12;9.95;;;;;;;-2.14;100.00;98295.91;4402103;32;20075;-69
2021/12/06 10:07:54;;;;;;;57.13;13.85;;;;;;;-2.06;100.00;98298.41;4400989;32;20113;-70
2021/12/06 10:10:21;;;;;;;32.95;11.48;;;;;;;-1.90;100.00;98326.38;4402170;32;20030;-68
2021/12/06 10:12:52;;;;;;;23.20;9.43;;;;;;;-1.90;100.00;98327.22;4407141;32;20039;-69
2021/12/06 10:15:20;;;;;;;23.25;9.77;;;;;;;-1.99;100.00;98319.59;4400392;32;20607;-68
2021/12/06 10:17:47;;;;;;;34.53;12.63;;;;;;;-2.23;100.00;98274.91;4414818;32;20395;-68
2021/12/06 10:20:15;;;;;;;32.53;12.50;;;;;;;-2.04;100.00;98304.34;4402253;32;20054;-69
2021/12/06 10:22:42;;;;;;;19.92;8.25;;;;;;;-2.04;100.00;98306.97;4412775;32;20076;-68
2021/12/06 10:25:08;;;;;;;23.42;9.85;;;;;;;-2.11;100.00;98303.44;4416192;32;20086;-69
2021/12/06 10:27:35;;;;;;;25.08;11.18;;;;;;;-2.29;100.00;98270.37;4414891;32;20095;-69
2021/12/06 10:30:08;;;;;;;33.28;10.45;;;;;;;-2.04;100.00;98320.97;4416618;32;20063;-69
2021/12/06 10:32:36;;;;;;;15.93;7.85;;;;;;;-2.00;100.00;98316.13;4412021;32;20403;-69
2021/12/06 10:35:05;;;;;;;10.52;5.97;;;;;;;-2.13;100.00;98311.53;4409481;32;20054;-69
2021/12/06 10:37:37;;;;;;;26.77;9.93;;;;;;;-2.08;100.00;98308.34;4416193;32;20054;-69
2021/12/06 10:40:05;;;;;;;;;;;;;;;-2.09;100.00;98306.69;4416498;32;20092;-69
2021/12/06 10:42:37;;;;;;;28.75;11.18;;;;;;;-1.99;100.00;98309.87;4414567;32;19963;-69
2021/12/06 10:45:15;;;;;;;20.52;7.60;;;;;;;-1.99;100.00;98311.66;4415665;32;20050;-70
2021/12/06 10:47:42;;;;;;;35.22;11.50;;;;;;;-2.04;100.00;98309.63;4416749;32;20081;-69
2021/12/06 10:50:15;;;;;;;30.98;11.90;;;;;;;-2.10;100.00;98311.16;4414724;32;20064;-69
2021/12/06 10:52:56;;;;;;;19.00;8.70;;;;;;;-1.97;100.00;98326.31;4414460;32;20050;-69
2021/12/06 10:55:28;;;;;;;26.58;11.25;;;;;;;-2.25;100.00;98287.47;4415996;32;20068;-70
2021/12/06 10:57:57;;;;;;;13.02;5.85;;;;;;;-2.17;100.00;98309.44;4415795;32;20038;-69
2021/12/06 11:00:30;;;;;;;29.25;8.38;;;;;;;-2.03;100.00;98327.06;4398278;32;20064;-69
2021/12/06 11:02:57;;;;;;;20.27;7.80;;;;;;;-2.39;100.00;98278.56;4414575;32;20862;-69
2021/12/06 11:05:27;;;;;;;11.30;5.60;;;;;;;-2.37;100.00;98283.66;4414865;32;20084;-69
2021/12/06 11:08:17;;;;;;;30.42;10.82;;;;;;;-2.12;100.00;98328.16;4401105;32;20042;-70
2021/12/06 11:10:48;;;;;;;20.45;9.52;;;;;;;-2.15;100.00;98325.91;4415106;32;20975;-69
2021/12/06 11:13:28;;;;;;;24.30;9.50;;;;;;;-2.21;100.00;98315.09;4415637;32;20047;-69
2021/12/06 11:16:10;;;;;;;27.50;10.73;;;;;;;-2.22;100.00;98324.03;4415667;32;20046;-69
2021/12/06 11:18:39;;;;;;;14.87;7.10;;;;;;;-2.29;100.00;98317.84;4415465;32;20068;-70
2021/12/06 11:21:20;;;;;;;32.58;12.57;;;;;;;-2.30;100.00;98316.19;4416767;32;20497;-69
2021/12/06 11:24:08;;;;;;;36.05;13.18;;;;;;;-2.33;100.00;98303.41;4413293;32;20162;-69
2021/12/06 11:26:44;;;;;;;9.25;5.62;;;;;;;-2.41;100.00;98271.84;4416673;32;20100;-69
2021/12/06 11:29:15;;;;;;;35.22;12.73;;;;;;;-2.47;100.00;98273.41;4415590;32;20456;-69
2021/12/06 11:31:51;;;;;;;3.55;3.03;;;;;;;-2.47;100.00;98269.94;4416282;32;20409;-69
2021/12/06 11:34:18;;;;;;;36.95;13.48;;;;;;;-2.40;100.00;98307.78;4416011;32;20060;-69
2021/12/06 11:36:45;;;;;;;31.55;12.95;;;;;;;-2.27;100.00;98315.81;4416246;32;20054;-69